Time;durP1;ratioP1;P1;durP2;ratioP2;P2;SDS_P1;SDS_P2;PMS_P1;PMS_P2;Temp;Humidity;BMP_temperature;BMP_pressure;BME280_temperature;BME280_humidity;BME280_pressure;Samples;Min_cycle;Max_cycle;Signal;HPM_P1;HPM_P2
2021/08/26 00:08:40;;;;;;;14.20;7.00;;;;;;;;;;20900815;28;20141;-67
2021/08/26 00:18:42;;;;;;;14.23;6.72;;;;;;;;;;20901589;28;20049;-64
2021/08/26 00:28:44;;;;;;;14.57;7.25;;;;;;;;;;20906723;28;20042;-64
2021/08/26 00:38:47;;;;;;;12.57;6.85;;;;;;;;;;20901084;28;20048;-69
2021/08/26 00:48:49;;;;;;;13.02;7.15;;;;;;;;;;20899708;28;20094;-64
2021/08/26 00:58:53;;;;;;;12.32;7.00;;;;;;;;;;20899760;28;20057;-62
2021/08/26 01:09:06;;;;;;;18.98;7.75;;;;;;;;;;20898451;28;20102;-63
2021/08/26 01:19:09;;;;;;;11.35;6.78;;;;;;;;;;20903056;28;20607;-69
2021/08/26 01:29:16;;;;;;;14.30;7.25;;;;;;;;;;20912307;28;20053;-64
2021/08/26 01:39:18;;;;;;;18.25;7.45;;;;;;;;;;20911559;28;20057;-63
2021/08/26 01:49:24;;;;;;;22.27;7.15;;;;;;;;;;20911175;28;20052;-64
2021/08/26 01:59:27;;;;;;;18.88;6.53;;;;;;;;;;20910972;28;20045;-63
2021/08/26 02:09:30;;;;;;;13.63;6.63;;;;;;;;;;20909286;28;20048;-62
2021/08/26 02:19:34;;;;;;;14.90;7.32;;;;;;;;;;20908932;28;20053;-63
2021/08/26 02:29:36;;;;;;;13.65;7.78;;;;;;;;;;20908035;28;20174;-62
2021/08/26 02:39:40;;;;;;;15.25;7.35;;;;;;;;;;20907521;28;20086;-61
2021/08/26 02:49:43;;;;;;;16.35;6.20;;;;;;;;;;20889660;28;20102;-63
2021/08/26 02:59:47;;;;;;;13.45;6.45;;;;;;;;;;20906041;28;20052;-63
2021/08/26 03:09:49;;;;;;;12.63;6.95;;;;;;;;;;20904829;28;20080;-62
2021/08/26 03:19:52;;;;;;;16.27;8.07;;;;;;;;;;20904850;28;20059;-63
2021/08/26 03:29:54;;;;;;;12.13;6.88;;;;;;;;;;20904893;28;20041;-64
2021/08/26 03:39:57;;;;;;;13.43;7.15;;;;;;;;;;20903440;28;20052;-67
2021/08/26 03:50:01;;;;;;;13.18;7.72;;;;;;;;;;20886081;28;20048;-63
2021/08/26 04:00:03;;;;;;;20.00;8.40;;;;;;;;;;20902703;28;20057;-64
2021/08/26 04:10:07;;;;;;;15.55;8.07;;;;;;;;;;20901750;28;20049;-62
2021/08/26 04:20:13;;;;;;;17.65;7.60;;;;;;;;;;20901215;28;20386;-63
2021/08/26 04:30:17;;;;;;;12.90;7.40;;;;;;;;;;20901315;28;20052;-63
2021/08/26 04:40:22;;;;;;;11.93;8.25;;;;;;;;;;20901028;28;20137;-65
2021/08/26 04:50:26;;;;;;;14.45;8.55;;;;;;;;;;20900726;28;20095;-62
2021/08/26 05:00:29;;;;;;;12.82;8.73;;;;;;;;;;20914602;28;20504;-62
2021/08/26 05:10:32;;;;;;;15.50;8.88;;;;;;;;;;20913088;28;20066;-62
2021/08/26 05:20:34;;;;;;;20.95;7.75;;;;;;;;;;20913079;28;20449;-62
2021/08/26 05:30:40;;;;;;;16.50;7.93;;;;;;;;;;20912810;28;20381;-63
2021/08/26 05:40:44;;;;;;;13.68;8.23;;;;;;;;;;20911960;28;20055;-63
2021/08/26 05:50:48;;;;;;;13.40;7.60;;;;;;;;;;20893605;28;20049;-63
2021/08/26 06:00:50;;;;;;;13.13;7.13;;;;;;;;;;20910229;28;20405;-63
2021/08/26 06:10:52;;;;;;;12.93;8.15;;;;;;;;;;20908574;28;20053;-63
2021/08/26 06:20:55;;;;;;;13.38;7.55;;;;;;;;;;20909185;28;20049;-69
2021/08/26 06:30:59;;;;;;;14.52;6.70;;;;;;;;;;20908644;28;20056;-62
2021/08/26 06:41:02;;;;;;;12.63;7.00;;;;;;;;;;20907967;28;20049;-63
2021/08/26 06:51:06;;;;;;;16.08;7.28;;;;;;;;;;20889097;28;20049;-62
2021/08/26 07:01:10;;;;;;;14.98;7.10;;;;;;;;;;20906130;28;20401;-62
2021/08/26 07:11:12;;;;;;;14.27;7.93;;;;;;;;;;20905136;28;20053;-64
2021/08/26 07:21:14;;;;;;;13.13;7.78;;;;;;;;;;20903577;28;20053;-63
2021/08/26 07:31:17;;;;;;;11.80;7.65;;;;;;;;;;20904170;28;20280;-62
2021/08/26 07:41:20;;;;;;;18.58;8.45;;;;;;;;;;20903578;28;20048;-64
2021/08/26 07:51:22;;;;;;;15.25;7.47;;;;;;;;;;20902929;28;20045;-63
2021/08/26 08:01:24;;;;;;;;;;;;;;;;;;20902293;28;20053;-67
2021/08/26 08:11:25;;;;;;;16.17;8.73;;;;;;;;;;20901851;28;19928;-67
2021/08/26 08:21:27;;;;;;;13.98;8.45;;;;;;;;;;20901597;28;20056;-67
2021/08/26 08:31:29;;;;;;;21.15;9.13;;;;;;;;;;20899925;28;20385;-66
2021/08/26 08:41:32;;;;;;;21.48;8.27;;;;;;;;;;20900397;28;20171;-66
2021/08/26 08:51:34;;;;;;;20.27;8.27;;;;;;;;;;20899536;28;20049;-66
2021/08/26 09:01:36;;;;;;;16.77;7.93;;;;;;;;;;20881219;28;20502;-62
2021/08/26 09:11:47;;;;;;;22.42;8.73;;;;;;;;;;20897958;28;20053;-62
2021/08/26 09:21:49;;;;;;;26.67;8.00;;;;;;;;;;20897826;28;20053;-62
2021/08/26 09:31:52;;;;;;;18.30;8.32;;;;;;;;;;20898855;28;20052;-63
2021/08/26 09:42:06;;;;;;;18.55;7.72;;;;;;;;;;20906208;28;20044;-63
2021/08/26 09:52:09;;;;;;;20.43;9.00;;;;;;;;;;20910418;28;20132;-64
2021/08/26 10:02:11;;;;;;;17.67;8.35;;;;;;;;;;20910330;28;20045;-64
2021/08/26 10:12:14;;;;;;;16.60;8.52;;;;;;;;;;20909311;28;20057;-63
2021/08/26 10:22:17;;;;;;;18.35;8.00;;;;;;;;;;20908855;28;20125;-63
2021/08/26 10:32:24;;;;;;;17.20;8.18;;;;;;;;;;20908340;28;20045;-63
2021/08/26 10:42:30;;;;;;;13.68;7.07;;;;;;;;;;20907626;28;20059;-63
2021/08/26 10:52:51;;;;;;;16.38;8.40;;;;;;;;;;20906620;28;20493;-62
2021/08/26 11:02:53;;;;;;;15.00;7.90;;;;;;;;;;20906115;28;20053;-64
2021/08/26 11:13:14;;;;;;;13.02;7.88;;;;;;;;;;20905473;28;20089;-62
2021/08/26 11:23:17;;;;;;;15.35;7.78;;;;;;;;;;20904752;28;20056;-63
2021/08/26 11:33:27;;;;;;;18.27;7.93;;;;;;;;;;20903722;28;20053;-62
2021/08/26 11:43:29;;;;;;;14.93;7.75;;;;;;;;;;20903909;28;20072;-63
2021/08/26 11:53:31;;;;;;;10.70;6.97;;;;;;;;;;20903087;28;20060;-63
2021/08/26 12:03:33;;;;;;;13.68;6.78;;;;;;;;;;20901376;28;20417;-63
2021/08/26 12:13:34;;;;;;;18.10;7.80;;;;;;;;;;20901882;28;20068;-63
2021/08/26 12:23:39;;;;;;;11.90;7.43;;;;;;;;;;20902440;28;20080;-62
2021/08/26 12:33:57;;;;;;;10.85;6.28;;;;;;;;;;20900939;28;20140;-64
2021/08/26 12:43:59;;;;;;;9.48;6.18;;;;;;;;;;20883471;28;20076;-63
2021/08/26 12:54:04;;;;;;;14.77;7.00;;;;;;;;;;20899329;28;20145;-63
2021/08/26 13:04:14;;;;;;;11.98;6.45;;;;;;;;;;20898219;28;20064;-63
2021/08/26 13:14:17;;;;;;;9.80;6.03;;;;;;;;;;20904213;28;20080;-63
2021/08/26 13:24:19;;;;;;;14.52;8.00;;;;;;;;;;20913346;28;20056;-62
2021/08/26 13:34:21;;;;;;;12.65;5.97;;;;;;;;;;20911112;28;20437;-63
2021/08/26 13:44:25;;;;;;;15.27;6.50;;;;;;;;;;20911456;28;20492;-63
2021/08/26 13:54:27;;;;;;;15.40;6.80;;;;;;;;;;20910265;28;20105;-62
2021/08/26 14:04:29;;;;;;;12.88;7.68;;;;;;;;;;20909626;28;20049;-63
2021/08/26 14:14:31;;;;;;;9.27;5.65;;;;;;;;;;20908949;28;20053;-69
2021/08/26 14:24:35;;;;;;;12.10;6.47;;;;;;;;;;20908316;28;20085;-63
2021/08/26 14:34:37;;;;;;;9.30;5.97;;;;;;;;;;20908333;28;20105;-64
2021/08/26 14:44:40;;;;;;;12.40;5.45;;;;;;;;;;20907481;28;20507;-63
2021/08/26 14:54:43;;;;;;;13.68;5.45;;;;;;;;;;20906752;28;20066;-63
2021/08/26 15:04:45;;;;;;;9.63;5.95;;;;;;;;;;20905889;28;20045;-62
2021/08/26 15:14:48;;;;;;;10.25;5.80;;;;;;;;;;20905437;28;20056;-63
2021/08/26 15:24:50;;;;;;;10.27;5.18;;;;;;;;;;20905191;28;20076;-63
2021/08/26 15:34:52;;;;;;;11.00;5.68;;;;;;;;;;20903899;28;20073;-62
2021/08/26 15:44:54;;;;;;;9.90;5.78;;;;;;;;;;20904316;28;20056;-63
2021/08/26 15:55:10;;;;;;;15.77;6.78;;;;;;;;;;20903287;28;20053;-62
2021/08/26 16:05:13;;;;;;;26.38;8.52;;;;;;;;;;20902187;28;20048;-63
2021/08/26 16:15:18;;;;;;;13.63;7.65;;;;;;;;;;20902395;28;20396;-64
2021/08/26 16:25:21;;;;;;;10.40;6.28;;;;;;;;;;20884487;28;20136;-63
2021/08/26 16:35:23;;;;;;;10.13;6.43;;;;;;;;;;20900600;28;20076;-62
2021/08/26 16:45:26;;;;;;;13.15;7.80;;;;;;;;;;20900767;28;20072;-62
2021/08/26 16:55:27;;;;;;;16.42;6.90;;;;;;;;;;20913423;28;20133;-63
2021/08/26 17:05:30;;;;;;;14.18;7.20;;;;;;;;;;20895703;28;20549;-63
2021/08/26 17:15:32;;;;;;;13.80;8.45;;;;;;;;;;20913475;28;20052;-64
2021/08/26 17:25:34;;;;;;;12.77;7.60;;;;;;;;;;20912456;28;20409;-63
2021/08/26 17:35:37;;;;;;;11.63;6.70;;;;;;;;;;20912073;28;20056;-63
2021/08/26 17:45:39;;;;;;;14.50;7.97;;;;;;;;;;20911101;28;20048;-64
2021/08/26 17:55:42;;;;;;;9.73;6.53;;;;;;;;;;20910387;28;20409;-63
2021/08/26 18:05:44;;;;;;;13.10;5.90;;;;;;;;;;20908101;28;20083;-67
2021/08/26 18:15:46;;;;;;;11.45;6.63;;;;;;;;;;20908537;28;20489;-64
2021/08/26 18:25:49;;;;;;;12.70;7.10;;;;;;;;;;20907699;28;20548;-64
2021/08/26 18:35:52;;;;;;;12.55;6.60;;;;;;;;;;20907216;28;20080;-65
2021/08/26 18:45:54;;;;;;;13.13;7.10;;;;;;;;;;20907379;28;20434;-64
2021/08/26 18:55:56;;;;;;;11.32;7.32;;;;;;;;;;20906257;28;20053;-64
2021/08/26 19:05:58;;;;;;;11.40;6.70;;;;;;;;;;20905492;28;20084;-62
2021/08/26 19:16:00;;;;;;;14.55;8.13;;;;;;;;;;20904844;28;20059;-64
2021/08/26 19:26:02;;;;;;;12.18;7.22;;;;;;;;;;20887277;28;20056;-62
2021/08/26 19:36:04;;;;;;;16.48;8.13;;;;;;;;;;20903213;28;20083;-63
2021/08/26 19:46:07;;;;;;;16.42;8.32;;;;;;;;;;20902861;28;20424;-64
2021/08/26 19:56:13;;;;;;;14.52;9.50;;;;;;;;;;20902604;28;20049;-62
2021/08/26 20:06:15;;;;;;;17.25;9.20;;;;;;;;;;20901585;28;20068;-64
2021/08/26 20:16:18;;;;;;;13.10;9.15;;;;;;;;;;20884836;28;20389;-63
2021/08/26 20:26:21;;;;;;;19.17;13.57;;;;;;;;;;20900218;28;20125;-63
2021/08/26 20:36:23;;;;;;;16.38;9.65;;;;;;;;;;20900359;28;20056;-64
2021/08/26 20:46:25;;;;;;;46.35;39.03;;;;;;;;;;20900330;28;20122;-65
2021/08/26 20:56:27;;;;;;;20.73;11.93;;;;;;;;;;20899767;28;20060;-65
2021/08/26 21:06:31;;;;;;;16.50;9.40;;;;;;;;;;20881677;28;20497;-63
2021/08/26 21:16:34;;;;;;;13.32;8.85;;;;;;;;;;20899027;28;20052;-63
2021/08/26 21:26:36;;;;;;;21.70;11.02;;;;;;;;;;20898151;28;20049;-62
2021/08/26 21:36:38;;;;;;;17.23;10.98;;;;;;;;;;20904507;28;20048;-64
2021/08/26 21:46:40;;;;;;;16.45;11.05;;;;;;;;;;20911295;28;20041;-63
2021/08/26 21:56:42;;;;;;;23.60;17.20;;;;;;;;;;20910700;28;20197;-63
2021/08/26 22:06:44;;;;;;;28.38;18.70;;;;;;;;;;20910008;28;20405;-65
2021/08/26 22:16:46;;;;;;;14.73;8.45;;;;;;;;;;20910217;28;20045;-68
2021/08/26 22:26:49;;;;;;;14.50;8.25;;;;;;;;;;20909794;28;20055;-64
2021/08/26 22:36:52;;;;;;;14.10;8.50;;;;;;;;;;20891149;28;20057;-68
2021/08/26 22:46:54;;;;;;;10.88;7.80;;;;;;;;;;20906975;28;20076;-65
2021/08/26 22:56:56;;;;;;;11.90;7.45;;;;;;;;;;20907094;28;20454;-67
2021/08/26 23:06:58;;;;;;;19.45;11.18;;;;;;;;;;20906510;28;20560;-63
2021/08/26 23:17:00;;;;;;;13.32;7.45;;;;;;;;;;20906348;28;20158;-64
2021/08/26 23:27:02;;;;;;;13.25;8.25;;;;;;;;;;20905894;28;20064;-62
2021/08/26 23:37:05;;;;;;;11.50;7.10;;;;;;;;;;20904999;28;20480;-63
2021/08/26 23:47:07;;;;;;;11.23;8.13;;;;;;;;;;20903704;28;20060;-63
2021/08/26 23:57:09;;;;;;;12.45;8.30;;;;;;;;;;20902039;28;20148;-62
